sensor_id;sensor_type;location;lat;lon;timestamp;P1;durP1;ratioP1;P2;durP2;ratioP2
4577;SDS011;2301;47.354;8.528;2023-09-07T00:01:57;2.90;;;2.50;;
4577;SDS011;2301;47.354;8.528;2023-09-07T00:04:24;2.97;;;2.33;;
4577;SDS011;2301;47.354;8.528;2023-09-07T00:06:51;4.20;;;2.83;;
4577;SDS011;2301;47.354;8.528;2023-09-07T00:09:19;4.13;;;2.70;;
4577;SDS011;2301;47.354;8.528;2023-09-07T00:11:47;4.60;;;2.77;;
4577;SDS011;2301;47.354;8.528;2023-09-07T00:14:14;2.90;;;2.37;;
4577;SDS011;2301;47.354;8.528;2023-09-07T00:16:40;4.20;;;2.50;;
4577;SDS011;2301;47.354;8.528;2023-09-07T00:19:08;2.57;;;2.37;;
4577;SDS011;2301;47.354;8.528;2023-09-07T00:21:37;3.00;;;2.70;;
4577;SDS011;2301;47.354;8.528;2023-09-07T00:24:06;2.60;;;2.40;;
4577;SDS011;2301;47.354;8.528;2023-09-07T00:26:38;4.53;;;2.80;;
4577;SDS011;2301;47.354;8.528;2023-09-07T00:29:06;3.20;;;2.90;;
4577;SDS011;2301;47.354;8.528;2023-09-07T00:31:33;4.20;;;2.90;;
4577;SDS011;2301;47.354;8.528;2023-09-07T00:34:00;3.90;;;2.97;;
4577;SDS011;2301;47.354;8.528;2023-09-07T00:36:27;4.00;;;2.83;;
4577;SDS011;2301;47.354;8.528;2023-09-07T00:38:54;2.53;;;2.27;;
4577;SDS011;2301;47.354;8.528;2023-09-07T00:41:21;5.87;;;2.73;;
4577;SDS011;2301;47.354;8.528;2023-09-07T00:43:49;5.30;;;2.87;;
4577;SDS011;2301;47.354;8.528;2023-09-07T00:46:16;3.10;;;2.50;;
4577;SDS011;2301;47.354;8.528;2023-09-07T00:48:43;3.47;;;3.00;;
4577;SDS011;2301;47.354;8.528;2023-09-07T00:51:10;3.40;;;2.90;;
4577;SDS011;2301;47.354;8.528;2023-09-07T00:53:37;3.70;;;2.80;;
4577;SDS011;2301;47.354;8.528;2023-09-07T00:56:04;3.00;;;2.70;;
4577;SDS011;2301;47.354;8.528;2023-09-07T00:58:32;3.93;;;2.63;;
4577;SDS011;2301;47.354;8.528;2023-09-07T01:01:01;2.87;;;2.57;;
4577;SDS011;2301;47.354;8.528;2023-09-07T01:03:28;3.80;;;2.83;;
4577;SDS011;2301;47.354;8.528;2023-09-07T01:05:56;3.37;;;2.50;;
4577;SDS011;2301;47.354;8.528;2023-09-07T01:08:29;3.23;;;2.77;;
4577;SDS011;2301;47.354;8.528;2023-09-07T01:10:59;4.63;;;2.83;;
4577;SDS011;2301;47.354;8.528;2023-09-07T01:13:25;5.50;;;2.70;;
4577;SDS011;2301;47.354;8.528;2023-09-07T01:15:52;2.70;;;2.33;;
4577;SDS011;2301;47.354;8.528;2023-09-07T01:18:21;4.00;;;2.67;;
4577;SDS011;2301;47.354;8.528;2023-09-07T01:20:48;5.67;;;2.93;;
4577;SDS011;2301;47.354;8.528;2023-09-07T01:23:17;3.57;;;2.60;;
4577;SDS011;2301;47.354;8.528;2023-09-07T01:25:44;4.33;;;2.43;;
4577;SDS011;2301;47.354;8.528;2023-09-07T01:28:11;3.20;;;2.40;;
4577;SDS011;2301;47.354;8.528;2023-09-07T01:30:40;9.37;;;3.17;;
4577;SDS011;2301;47.354;8.528;2023-09-07T01:33:07;3.80;;;2.67;;
4577;SDS011;2301;47.354;8.528;2023-09-07T01:35:34;2.80;;;2.40;;
4577;SDS011;2301;47.354;8.528;2023-09-07T01:38:01;3.70;;;2.77;;
4577;SDS011;2301;47.354;8.528;2023-09-07T01:40:30;3.17;;;2.63;;
4577;SDS011;2301;47.354;8.528;2023-09-07T01:42:56;2.97;;;2.17;;
4577;SDS011;2301;47.354;8.528;2023-09-07T01:45:23;4.43;;;2.63;;
4577;SDS011;2301;47.354;8.528;2023-09-07T01:47:50;9.17;;;2.90;;
4577;SDS011;2301;47.354;8.528;2023-09-07T01:50:17;3.23;;;2.63;;
4577;SDS011;2301;47.354;8.528;2023-09-07T01:52:45;2.90;;;2.50;;
4577;SDS011;2301;47.354;8.528;2023-09-07T01:55:14;3.87;;;2.23;;
4577;SDS011;2301;47.354;8.528;2023-09-07T01:57:47;5.97;;;2.77;;
4577;SDS011;2301;47.354;8.528;2023-09-07T02:00:16;3.27;;;2.47;;
4577;SDS011;2301;47.354;8.528;2023-09-07T02:02:43;3.00;;;2.70;;
4577;SDS011;2301;47.354;8.528;2023-09-07T02:05:10;2.70;;;2.10;;
4577;SDS011;2301;47.354;8.528;2023-09-07T02:07:37;3.40;;;2.47;;
4577;SDS011;2301;47.354;8.528;2023-09-07T02:10:04;4.70;;;2.50;;
4577;SDS011;2301;47.354;8.528;2023-09-07T02:12:32;2.90;;;2.50;;
4577;SDS011;2301;47.354;8.528;2023-09-07T02:15:00;5.27;;;2.43;;
4577;SDS011;2301;47.354;8.528;2023-09-07T02:17:29;5.40;;;2.50;;
4577;SDS011;2301;47.354;8.528;2023-09-07T02:19:57;3.40;;;2.20;;
4577;SDS011;2301;47.354;8.528;2023-09-07T02:22:24;5.23;;;2.47;;
4577;SDS011;2301;47.354;8.528;2023-09-07T02:24:51;5.07;;;2.30;;
4577;SDS011;2301;47.354;8.528;2023-09-07T02:27:18;3.20;;;2.50;;
4577;SDS011;2301;47.354;8.528;2023-09-07T02:29:45;3.70;;;2.30;;
4577;SDS011;2301;47.354;8.528;2023-09-07T02:32:13;3.33;;;2.40;;
4577;SDS011;2301;47.354;8.528;2023-09-07T02:34:40;6.50;;;2.43;;
4577;SDS011;2301;47.354;8.528;2023-09-07T02:37:08;3.17;;;2.43;;
4577;SDS011;2301;47.354;8.528;2023-09-07T02:39:35;4.77;;;2.53;;
4577;SDS011;2301;47.354;8.528;2023-09-07T02:42:02;3.57;;;2.50;;
4577;SDS011;2301;47.354;8.528;2023-09-07T02:44:29;2.80;;;2.50;;
4577;SDS011;2301;47.354;8.528;2023-09-07T02:46:55;5.23;;;2.50;;
4577;SDS011;2301;47.354;8.528;2023-09-07T02:49:24;4.33;;;2.70;;
4577;SDS011;2301;47.354;8.528;2023-09-07T02:51:50;4.37;;;3.20;;
4577;SDS011;2301;47.354;8.528;2023-09-07T02:54:17;2.70;;;2.40;;
4577;SDS011;2301;47.354;8.528;2023-09-07T02:56:44;3.20;;;2.70;;
4577;SDS011;2301;47.354;8.528;2023-09-07T02:59:11;5.40;;;2.90;;
4577;SDS011;2301;47.354;8.528;2023-09-07T03:01:38;3.13;;;2.50;;
4577;SDS011;2301;47.354;8.528;2023-09-07T03:04:05;6.47;;;2.90;;
4577;SDS011;2301;47.354;8.528;2023-09-07T03:06:33;3.30;;;2.73;;
4577;SDS011;2301;47.354;8.528;2023-09-07T03:09:00;6.23;;;2.50;;
4577;SDS011;2301;47.354;8.528;2023-09-07T03:11:27;6.93;;;2.83;;
4577;SDS011;2301;47.354;8.528;2023-09-07T03:13:58;2.63;;;2.40;;
4577;SDS011;2301;47.354;8.528;2023-09-07T03:16:25;2.73;;;2.43;;
4577;SDS011;2301;47.354;8.528;2023-09-07T03:18:52;8.60;;;2.80;;
4577;SDS011;2301;47.354;8.528;2023-09-07T03:21:19;7.40;;;2.70;;
4577;SDS011;2301;47.354;8.528;2023-09-07T03:23:51;5.00;;;2.50;;
4577;SDS011;2301;47.354;8.528;2023-09-07T03:26:19;3.33;;;2.50;;
4577;SDS011;2301;47.354;8.528;2023-09-07T03:28:45;3.90;;;2.00;;
4577;SDS011;2301;47.354;8.528;2023-09-07T03:31:12;5.03;;;2.70;;
4577;SDS011;2301;47.354;8.528;2023-09-07T03:33:39;4.03;;;2.40;;
4577;SDS011;2301;47.354;8.528;2023-09-07T03:36:06;3.33;;;2.53;;
4577;SDS011;2301;47.354;8.528;2023-09-07T03:38:34;2.80;;;2.30;;
4577;SDS011;2301;47.354;8.528;2023-09-07T03:41:03;4.73;;;2.10;;
4577;SDS011;2301;47.354;8.528;2023-09-07T03:43:29;3.83;;;2.63;;
4577;SDS011;2301;47.354;8.528;2023-09-07T03:45:56;5.70;;;2.40;;
4577;SDS011;2301;47.354;8.528;2023-09-07T03:48:23;5.70;;;2.87;;
4577;SDS011;2301;47.354;8.528;2023-09-07T03:50:50;3.73;;;2.63;;
4577;SDS011;2301;47.354;8.528;2023-09-07T03:53:17;3.33;;;2.40;;
4577;SDS011;2301;47.354;8.528;2023-09-07T03:55:44;3.70;;;2.57;;
4577;SDS011;2301;47.354;8.528;2023-09-07T03:58:13;4.00;;;2.60;;
4577;SDS011;2301;47.354;8.528;2023-09-07T04:00:40;3.53;;;2.83;;
4577;SDS011;2301;47.354;8.528;2023-09-07T04:03:07;3.50;;;2.40;;
4577;SDS011;2301;47.354;8.528;2023-09-07T04:05:36;3.23;;;2.30;;
4577;SDS011;2301;47.354;8.528;2023-09-07T04:08:06;5.30;;;2.93;;
4577;SDS011;2301;47.354;8.528;2023-09-07T04:10:36;2.50;;;2.00;;
4577;SDS011;2301;47.354;8.528;2023-09-07T04:13:04;4.10;;;2.63;;
4577;SDS011;2301;47.354;8.528;2023-09-07T04:15:32;3.50;;;2.30;;
4577;SDS011;2301;47.354;8.528;2023-09-07T04:17:59;2.93;;;2.33;;
4577;SDS011;2301;47.354;8.528;2023-09-07T04:20:26;4.87;;;2.90;;
4577;SDS011;2301;47.354;8.528;2023-09-07T04:22:54;3.90;;;2.40;;
4577;SDS011;2301;47.354;8.528;2023-09-07T04:25:21;3.33;;;2.90;;
4577;SDS011;2301;47.354;8.528;2023-09-07T04:27:48;4.90;;;2.60;;
4577;SDS011;2301;47.354;8.528;2023-09-07T04:30:15;4.30;;;2.77;;
4577;SDS011;2301;47.354;8.528;2023-09-07T04:32:43;8.90;;;2.83;;
4577;SDS011;2301;47.354;8.528;2023-09-07T04:35:10;3.00;;;2.43;;
4577;SDS011;2301;47.354;8.528;2023-09-07T04:37:37;4.00;;;3.00;;
4577;SDS011;2301;47.354;8.528;2023-09-07T04:40:05;5.00;;;3.20;;
4577;SDS011;2301;47.354;8.528;2023-09-07T04:42:32;4.53;;;2.63;;
4577;SDS011;2301;47.354;8.528;2023-09-07T04:44:59;3.40;;;2.67;;
4577;SDS011;2301;47.354;8.528;2023-09-07T04:47:26;4.23;;;3.37;;
4577;SDS011;2301;47.354;8.528;2023-09-07T04:49:54;6.00;;;3.53;;
4577;SDS011;2301;47.354;8.528;2023-09-07T04:52:21;5.33;;;2.90;;
4577;SDS011;2301;47.354;8.528;2023-09-07T04:54:49;5.50;;;3.20;;
4577;SDS011;2301;47.354;8.528;2023-09-07T04:57:16;4.93;;;3.00;;
4577;SDS011;2301;47.354;8.528;2023-09-07T04:59:43;8.83;;;3.23;;
4577;SDS011;2301;47.354;8.528;2023-09-07T05:02:10;3.83;;;2.90;;
4577;SDS011;2301;47.354;8.528;2023-09-07T05:04:37;6.20;;;2.87;;
4577;SDS011;2301;47.354;8.528;2023-09-07T05:07:05;3.50;;;3.10;;
4577;SDS011;2301;47.354;8.528;2023-09-07T05:09:32;3.97;;;2.73;;
4577;SDS011;2301;47.354;8.528;2023-09-07T05:11:59;5.63;;;3.10;;
4577;SDS011;2301;47.354;8.528;2023-09-07T05:14:26;4.87;;;3.07;;
4577;SDS011;2301;47.354;8.528;2023-09-07T05:16:54;4.53;;;3.17;;
4577;SDS011;2301;47.354;8.528;2023-09-07T05:19:21;7.20;;;3.07;;
4577;SDS011;2301;47.354;8.528;2023-09-07T05:21:48;6.40;;;3.50;;
4577;SDS011;2301;47.354;8.528;2023-09-07T05:24:16;5.60;;;3.00;;
4577;SDS011;2301;47.354;8.528;2023-09-07T05:26:43;4.33;;;2.77;;
4577;SDS011;2301;47.354;8.528;2023-09-07T05:29:11;6.00;;;2.70;;
4577;SDS011;2301;47.354;8.528;2023-09-07T05:31:38;4.33;;;3.27;;
4577;SDS011;2301;47.354;8.528;2023-09-07T05:34:05;4.00;;;2.83;;
4577;SDS011;2301;47.354;8.528;2023-09-07T05:36:32;5.57;;;3.07;;
4577;SDS011;2301;47.354;8.528;2023-09-07T05:38:59;6.43;;;3.17;;
4577;SDS011;2301;47.354;8.528;2023-09-07T05:41:28;6.00;;;3.03;;
4577;SDS011;2301;47.354;8.528;2023-09-07T05:43:55;3.87;;;2.77;;
4577;SDS011;2301;47.354;8.528;2023-09-07T05:46:22;5.03;;;3.40;;
4577;SDS011;2301;47.354;8.528;2023-09-07T05:48:49;3.83;;;3.20;;
4577;SDS011;2301;47.354;8.528;2023-09-07T05:51:16;3.67;;;2.70;;
4577;SDS011;2301;47.354;8.528;2023-09-07T05:53:43;4.77;;;2.80;;
4577;SDS011;2301;47.354;8.528;2023-09-07T05:56:10;5.40;;;3.10;;
4577;SDS011;2301;47.354;8.528;2023-09-07T05:58:38;6.13;;;3.50;;
4577;SDS011;2301;47.354;8.528;2023-09-07T06:01:05;3.87;;;3.20;;
4577;SDS011;2301;47.354;8.528;2023-09-07T06:03:32;5.33;;;3.37;;
4577;SDS011;2301;47.354;8.528;2023-09-07T06:06:00;4.00;;;3.13;;
4577;SDS011;2301;47.354;8.528;2023-09-07T06:08:27;4.80;;;3.00;;
4577;SDS011;2301;47.354;8.528;2023-09-07T06:10:54;6.23;;;3.10;;
4577;SDS011;2301;47.354;8.528;2023-09-07T06:13:21;5.40;;;3.70;;
4577;SDS011;2301;47.354;8.528;2023-09-07T06:15:49;4.93;;;3.17;;
4577;SDS011;2301;47.354;8.528;2023-09-07T06:18:16;6.40;;;3.70;;
4577;SDS011;2301;47.354;8.528;2023-09-07T06:20:43;4.87;;;3.37;;
4577;SDS011;2301;47.354;8.528;2023-09-07T06:23:10;6.70;;;3.20;;
4577;SDS011;2301;47.354;8.528;2023-09-07T06:25:36;9.27;;;3.90;;
4577;SDS011;2301;47.354;8.528;2023-09-07T06:28:03;7.00;;;3.73;;
4577;SDS011;2301;47.354;8.528;2023-09-07T06:30:31;8.03;;;3.10;;
4577;SDS011;2301;47.354;8.528;2023-09-07T06:32:59;8.77;;;3.60;;
4577;SDS011;2301;47.354;8.528;2023-09-07T06:35:26;3.43;;;2.70;;
4577;SDS011;2301;47.354;8.528;2023-09-07T06:37:53;4.60;;;3.83;;
4577;SDS011;2301;47.354;8.528;2023-09-07T06:40:20;4.57;;;3.37;;
4577;SDS011;2301;47.354;8.528;2023-09-07T06:42:47;6.43;;;3.80;;
4577;SDS011;2301;47.354;8.528;2023-09-07T06:45:14;6.23;;;3.27;;
4577;SDS011;2301;47.354;8.528;2023-09-07T06:47:41;4.37;;;3.30;;
4577;SDS011;2301;47.354;8.528;2023-09-07T06:50:10;6.47;;;3.40;;
4577;SDS011;2301;47.354;8.528;2023-09-07T06:52:37;4.40;;;3.47;;
4577;SDS011;2301;47.354;8.528;2023-09-07T06:55:04;4.10;;;2.87;;
4577;SDS011;2301;47.354;8.528;2023-09-07T06:57:31;3.20;;;2.33;;
4577;SDS011;2301;47.354;8.528;2023-09-07T06:59:59;5.97;;;3.37;;
4577;SDS011;2301;47.354;8.528;2023-09-07T07:02:25;6.57;;;2.90;;
4577;SDS011;2301;47.354;8.528;2023-09-07T07:04:52;4.37;;;3.20;;
4577;SDS011;2301;47.354;8.528;2023-09-07T07:07:21;17.73;;;4.80;;
4577;SDS011;2301;47.354;8.528;2023-09-07T07:09:47;4.10;;;2.73;;
4577;SDS011;2301;47.354;8.528;2023-09-07T07:12:15;4.10;;;3.03;;
4577;SDS011;2301;47.354;8.528;2023-09-07T07:14:42;4.07;;;3.23;;
4577;SDS011;2301;47.354;8.528;2023-09-07T07:17:09;6.53;;;3.27;;
4577;SDS011;2301;47.354;8.528;2023-09-07T07:19:36;4.00;;;2.80;;
4577;SDS011;2301;47.354;8.528;2023-09-07T07:22:03;6.10;;;3.00;;
4577;SDS011;2301;47.354;8.528;2023-09-07T07:24:31;4.20;;;3.33;;
4577;SDS011;2301;47.354;8.528;2023-09-07T07:26:58;3.40;;;2.63;;
4577;SDS011;2301;47.354;8.528;2023-09-07T07:29:25;4.97;;;3.10;;
4577;SDS011;2301;47.354;8.528;2023-09-07T07:31:51;3.03;;;2.60;;
4577;SDS011;2301;47.354;8.528;2023-09-07T07:34:18;4.57;;;2.70;;
4577;SDS011;2301;47.354;8.528;2023-09-07T07:36:45;3.90;;;3.30;;
4577;SDS011;2301;47.354;8.528;2023-09-07T07:39:12;4.67;;;2.63;;
4577;SDS011;2301;47.354;8.528;2023-09-07T07:41:42;5.77;;;5.17;;
4577;SDS011;2301;47.354;8.528;2023-09-07T07:44:10;7.03;;;6.33;;
4577;SDS011;2301;47.354;8.528;2023-09-07T07:46:37;7.97;;;3.70;;
4577;SDS011;2301;47.354;8.528;2023-09-07T07:49:04;6.63;;;3.07;;
4577;SDS011;2301;47.354;8.528;2023-09-07T07:51:31;5.23;;;3.87;;
4577;SDS011;2301;47.354;8.528;2023-09-07T07:53:58;4.03;;;3.10;;
4577;SDS011;2301;47.354;8.528;2023-09-07T07:56:24;3.07;;;2.63;;
4577;SDS011;2301;47.354;8.528;2023-09-07T07:58:53;3.43;;;2.87;;
4577;SDS011;2301;47.354;8.528;2023-09-07T08:01:20;3.30;;;2.83;;
4577;SDS011;2301;47.354;8.528;2023-09-07T08:03:47;3.67;;;3.00;;
4577;SDS011;2301;47.354;8.528;2023-09-07T08:06:14;4.23;;;2.87;;
4577;SDS011;2301;47.354;8.528;2023-09-07T08:08:41;3.70;;;2.83;;
4577;SDS011;2301;47.354;8.528;2023-09-07T08:11:08;4.63;;;2.97;;
4577;SDS011;2301;47.354;8.528;2023-09-07T08:13:35;5.23;;;2.93;;
4577;SDS011;2301;47.354;8.528;2023-09-07T08:16:03;3.30;;;3.00;;
4577;SDS011;2301;47.354;8.528;2023-09-07T08:18:32;6.10;;;3.10;;
4577;SDS011;2301;47.354;8.528;2023-09-07T08:20:59;5.20;;;4.80;;
4577;SDS011;2301;47.354;8.528;2023-09-07T08:23:26;5.13;;;4.63;;
4577;SDS011;2301;47.354;8.528;2023-09-07T08:25:53;3.13;;;2.87;;
4577;SDS011;2301;47.354;8.528;2023-09-07T08:28:20;4.47;;;3.30;;
4577;SDS011;2301;47.354;8.528;2023-09-07T08:30:48;3.73;;;3.10;;
4577;SDS011;2301;47.354;8.528;2023-09-07T08:33:19;3.20;;;2.90;;
4577;SDS011;2301;47.354;8.528;2023-09-07T08:35:51;3.70;;;2.60;;
4577;SDS011;2301;47.354;8.528;2023-09-07T08:38:19;5.93;;;3.10;;
4577;SDS011;2301;47.354;8.528;2023-09-07T08:40:49;3.00;;;2.67;;
4577;SDS011;2301;47.354;8.528;2023-09-07T08:43:17;3.33;;;2.93;;
4577;SDS011;2301;47.354;8.528;2023-09-07T08:45:46;3.87;;;2.83;;
4577;SDS011;2301;47.354;8.528;2023-09-07T08:48:17;2.97;;;2.40;;
4577;SDS011;2301;47.354;8.528;2023-09-07T08:50:46;3.43;;;3.13;;
4577;SDS011;2301;47.354;8.528;2023-09-07T08:53:17;4.33;;;2.60;;
4577;SDS011;2301;47.354;8.528;2023-09-07T08:55:45;3.50;;;3.00;;
4577;SDS011;2301;47.354;8.528;2023-09-07T08:58:12;3.20;;;2.80;;
4577;SDS011;2301;47.354;8.528;2023-09-07T09:00:39;4.80;;;2.70;;
4577;SDS011;2301;47.354;8.528;2023-09-07T09:03:08;4.27;;;3.00;;
4577;SDS011;2301;47.354;8.528;2023-09-07T09:05:37;4.37;;;3.10;;
4577;SDS011;2301;47.354;8.528;2023-09-07T09:08:06;3.03;;;2.73;;
4577;SDS011;2301;47.354;8.528;2023-09-07T09:10:33;3.60;;;3.10;;
4577;SDS011;2301;47.354;8.528;2023-09-07T09:13:00;3.50;;;2.67;;
4577;SDS011;2301;47.354;8.528;2023-09-07T09:15:27;5.57;;;2.70;;
4577;SDS011;2301;47.354;8.528;2023-09-07T09:17:54;4.77;;;2.70;;
4577;SDS011;2301;47.354;8.528;2023-09-07T09:20:22;3.07;;;2.50;;
4577;SDS011;2301;47.354;8.528;2023-09-07T09:22:52;4.47;;;2.50;;
4577;SDS011;2301;47.354;8.528;2023-09-07T09:25:20;3.80;;;2.80;;
4577;SDS011;2301;47.354;8.528;2023-09-07T09:27:47;5.63;;;2.70;;
4577;SDS011;2301;47.354;8.528;2023-09-07T09:30:14;3.23;;;2.90;;
4577;SDS011;2301;47.354;8.528;2023-09-07T09:32:42;4.90;;;2.80;;
4577;SDS011;2301;47.354;8.528;2023-09-07T09:35:09;3.00;;;2.67;;
4577;SDS011;2301;47.354;8.528;2023-09-07T09:37:44;3.50;;;2.50;;
4577;SDS011;2301;47.354;8.528;2023-09-07T09:40:14;4.13;;;2.80;;
4577;SDS011;2301;47.354;8.528;2023-09-07T09:42:41;3.33;;;2.60;;
4577;SDS011;2301;47.354;8.528;2023-09-07T09:45:09;3.27;;;2.30;;
4577;SDS011;2301;47.354;8.528;2023-09-07T09:47:38;2.80;;;2.60;;
4577;SDS011;2301;47.354;8.528;2023-09-07T09:50:06;2.80;;;2.20;;
4577;SDS011;2301;47.354;8.528;2023-09-07T09:52:34;2.50;;;2.20;;
4577;SDS011;2301;47.354;8.528;2023-09-07T09:55:02;6.50;;;2.60;;
4577;SDS011;2301;47.354;8.528;2023-09-07T09:57:34;3.07;;;2.03;;
4577;SDS011;2301;47.354;8.528;2023-09-07T10:00:02;3.50;;;2.37;;
4577;SDS011;2301;47.354;8.528;2023-09-07T10:02:44;2.37;;;2.17;;
4577;SDS011;2301;47.354;8.528;2023-09-07T10:05:14;3.00;;;2.60;;
4577;SDS011;2301;47.354;8.528;2023-09-07T10:07:42;4.50;;;2.30;;
4577;SDS011;2301;47.354;8.528;2023-09-07T10:10:12;2.43;;;2.23;;
4577;SDS011;2301;47.354;8.528;2023-09-07T10:12:41;2.60;;;2.20;;
4577;SDS011;2301;47.354;8.528;2023-09-07T10:15:24;2.10;;;2.00;;
4577;SDS011;2301;47.354;8.528;2023-09-07T10:18:02;3.60;;;2.50;;
4577;SDS011;2301;47.354;8.528;2023-09-07T10:20:34;2.40;;;2.20;;
4577;SDS011;2301;47.354;8.528;2023-09-07T10:23:12;2.00;;;1.90;;
4577;SDS011;2301;47.354;8.528;2023-09-07T10:25:39;2.20;;;2.10;;
4577;SDS011;2301;47.354;8.528;2023-09-07T10:28:18;2.30;;;2.10;;
4577;SDS011;2301;47.354;8.528;2023-09-07T10:30:45;3.40;;;2.40;;
4577;SDS011;2301;47.354;8.528;2023-09-07T10:33:23;2.70;;;2.50;;
4577;SDS011;2301;47.354;8.528;2023-09-07T10:35:50;2.13;;;1.97;;
4577;SDS011;2301;47.354;8.528;2023-09-07T10:38:16;2.43;;;2.23;;
4577;SDS011;2301;47.354;8.528;2023-09-07T10:40:44;2.97;;;2.40;;
4577;SDS011;2301;47.354;8.528;2023-09-07T10:43:11;4.33;;;2.80;;
4577;SDS011;2301;47.354;8.528;2023-09-07T10:45:39;4.20;;;2.87;;
4577;SDS011;2301;47.354;8.528;2023-09-07T10:48:11;4.40;;;2.77;;
4577;SDS011;2301;47.354;8.528;2023-09-07T10:50:42;2.93;;;2.57;;
4577;SDS011;2301;47.354;8.528;2023-09-07T10:53:09;4.80;;;3.07;;
4577;SDS011;2301;47.354;8.528;2023-09-07T10:55:38;3.17;;;2.87;;
4577;SDS011;2301;47.354;8.528;2023-09-07T10:58:09;2.90;;;2.70;;
4577;SDS011;2301;47.354;8.528;2023-09-07T11:00:40;3.37;;;3.07;;
4577;SDS011;2301;47.354;8.528;2023-09-07T11:03:07;3.70;;;2.70;;
4577;SDS011;2301;47.354;8.528;2023-09-07T11:05:36;3.17;;;2.37;;
4577;SDS011;2301;47.354;8.528;2023-09-07T11:08:04;2.67;;;2.47;;
4577;SDS011;2301;47.354;8.528;2023-09-07T11:10:33;3.27;;;2.60;;
4577;SDS011;2301;47.354;8.528;2023-09-07T11:13:03;3.43;;;2.90;;
4577;SDS011;2301;47.354;8.528;2023-09-07T11:15:32;2.70;;;2.50;;
4577;SDS011;2301;47.354;8.528;2023-09-07T11:18:05;2.67;;;2.43;;
4577;SDS011;2301;47.354;8.528;2023-09-07T11:20:32;4.93;;;2.50;;
4577;SDS011;2301;47.354;8.528;2023-09-07T11:23:00;2.83;;;2.53;;
4577;SDS011;2301;47.354;8.528;2023-09-07T11:25:33;2.60;;;2.40;;
4577;SDS011;2301;47.354;8.528;2023-09-07T11:28:01;3.70;;;2.43;;
4577;SDS011;2301;47.354;8.528;2023-09-07T11:30:29;3.00;;;2.53;;
4577;SDS011;2301;47.354;8.528;2023-09-07T11:33:00;3.33;;;2.70;;
4577;SDS011;2301;47.354;8.528;2023-09-07T11:35:29;5.27;;;2.63;;
4577;SDS011;2301;47.354;8.528;2023-09-07T11:37:55;7.00;;;2.80;;
4577;SDS011;2301;47.354;8.528;2023-09-07T11:40:22;2.87;;;2.57;;
4577;SDS011;2301;47.354;8.528;2023-09-07T11:42:49;2.50;;;2.30;;
4577;SDS011;2301;47.354;8.528;2023-09-07T11:45:16;8.37;;;2.60;;
4577;SDS011;2301;47.354;8.528;2023-09-07T11:47:44;5.47;;;2.40;;
4577;SDS011;2301;47.354;8.528;2023-09-07T11:50:11;6.73;;;2.10;;
4577;SDS011;2301;47.354;8.528;2023-09-07T11:52:39;5.67;;;2.30;;
4577;SDS011;2301;47.354;8.528;2023-09-07T11:55:06;2.63;;;2.43;;
4577;SDS011;2301;47.354;8.528;2023-09-07T11:57:35;3.17;;;2.87;;
4577;SDS011;2301;47.354;8.528;2023-09-07T12:00:03;4.27;;;2.40;;
4577;SDS011;2301;47.354;8.528;2023-09-07T12:02:36;2.53;;;2.30;;
4577;SDS011;2301;47.354;8.528;2023-09-07T12:05:03;2.87;;;2.23;;
4577;SDS011;2301;47.354;8.528;2023-09-07T12:07:32;2.50;;;2.30;;
4577;SDS011;2301;47.354;8.528;2023-09-07T12:10:00;3.07;;;2.00;;
4577;SDS011;2301;47.354;8.528;2023-09-07T12:12:27;4.37;;;2.37;;
4577;SDS011;2301;47.354;8.528;2023-09-07T12:14:54;3.30;;;2.27;;
4577;SDS011;2301;47.354;8.528;2023-09-07T12:17:22;2.77;;;1.90;;
4577;SDS011;2301;47.354;8.528;2023-09-07T12:19:49;2.80;;;1.87;;
4577;SDS011;2301;47.354;8.528;2023-09-07T12:22:16;1.93;;;1.83;;
4577;SDS011;2301;47.354;8.528;2023-09-07T12:24:43;5.70;;;1.77;;
4577;SDS011;2301;47.354;8.528;2023-09-07T12:27:12;3.07;;;2.03;;
4577;SDS011;2301;47.354;8.528;2023-09-07T12:29:39;1.93;;;1.83;;
4577;SDS011;2301;47.354;8.528;2023-09-07T12:32:06;2.70;;;2.33;;
4577;SDS011;2301;47.354;8.528;2023-09-07T12:34:33;5.53;;;2.03;;
4577;SDS011;2301;47.354;8.528;2023-09-07T12:37:00;2.17;;;1.90;;
4577;SDS011;2301;47.354;8.528;2023-09-07T12:39:29;2.47;;;2.00;;
4577;SDS011;2301;47.354;8.528;2023-09-07T12:41:56;2.33;;;2.13;;
4577;SDS011;2301;47.354;8.528;2023-09-07T12:44:24;2.20;;;2.00;;
4577;SDS011;2301;47.354;8.528;2023-09-07T12:46:51;2.20;;;1.70;;
4577;SDS011;2301;47.354;8.528;2023-09-07T12:49:18;2.00;;;1.70;;
4577;SDS011;2301;47.354;8.528;2023-09-07T12:51:45;3.10;;;2.00;;
4577;SDS011;2301;47.354;8.528;2023-09-07T12:54:13;3.40;;;1.93;;
4577;SDS011;2301;47.354;8.528;2023-09-07T12:56:40;1.50;;;1.40;;
4577;SDS011;2301;47.354;8.528;2023-09-07T12:59:07;5.30;;;2.33;;
4577;SDS011;2301;47.354;8.528;2023-09-07T13:01:41;2.97;;;2.03;;
4577;SDS011;2301;47.354;8.528;2023-09-07T13:04:12;3.47;;;1.93;;
4577;SDS011;2301;47.354;8.528;2023-09-07T13:06:39;2.63;;;1.70;;
4577;SDS011;2301;47.354;8.528;2023-09-07T13:09:06;2.63;;;2.20;;
4577;SDS011;2301;47.354;8.528;2023-09-07T13:11:34;1.83;;;1.73;;
4577;SDS011;2301;47.354;8.528;2023-09-07T13:14:01;1.93;;;1.83;;
4577;SDS011;2301;47.354;8.528;2023-09-07T13:16:28;1.87;;;1.77;;
4577;SDS011;2301;47.354;8.528;2023-09-07T13:18:58;3.07;;;2.00;;
4577;SDS011;2301;47.354;8.528;2023-09-07T13:21:25;2.20;;;1.70;;
4577;SDS011;2301;47.354;8.528;2023-09-07T13:23:52;3.07;;;1.60;;
4577;SDS011;2301;47.354;8.528;2023-09-07T13:26:20;2.53;;;1.57;;
4577;SDS011;2301;47.354;8.528;2023-09-07T13:28:47;2.13;;;1.80;;
4577;SDS011;2301;47.354;8.528;2023-09-07T13:31:13;4.60;;;2.00;;
4577;SDS011;2301;47.354;8.528;2023-09-07T13:33:40;2.00;;;1.87;;
4577;SDS011;2301;47.354;8.528;2023-09-07T13:36:09;2.83;;;1.83;;
4577;SDS011;2301;47.354;8.528;2023-09-07T13:38:36;4.73;;;1.90;;
4577;SDS011;2301;47.354;8.528;2023-09-07T13:41:03;2.33;;;1.80;;
4577;SDS011;2301;47.354;8.528;2023-09-07T13:43:29;4.73;;;2.10;;
4577;SDS011;2301;47.354;8.528;2023-09-07T13:45:56;2.70;;;1.73;;
4577;SDS011;2301;47.354;8.528;2023-09-07T13:48:23;3.30;;;1.67;;
4577;SDS011;2301;47.354;8.528;2023-09-07T13:50:50;2.30;;;2.00;;
4577;SDS011;2301;47.354;8.528;2023-09-07T13:53:18;3.50;;;2.10;;
4577;SDS011;2301;47.354;8.528;2023-09-07T13:55:45;1.77;;;1.67;;
4577;SDS011;2301;47.354;8.528;2023-09-07T13:58:12;3.70;;;1.93;;
4577;SDS011;2301;47.354;8.528;2023-09-07T14:00:39;1.97;;;1.77;;
4577;SDS011;2301;47.354;8.528;2023-09-07T14:03:06;3.50;;;1.87;;
4577;SDS011;2301;47.354;8.528;2023-09-07T14:05:33;4.57;;;2.10;;
4577;SDS011;2301;47.354;8.528;2023-09-07T14:08:00;2.20;;;2.00;;
4577;SDS011;2301;47.354;8.528;2023-09-07T14:10:28;3.23;;;1.87;;
4577;SDS011;2301;47.354;8.528;2023-09-07T14:12:55;2.97;;;2.03;;
4577;SDS011;2301;47.354;8.528;2023-09-07T14:15:22;1.90;;;1.80;;
4577;SDS011;2301;47.354;8.528;2023-09-07T14:17:48;1.73;;;1.63;;
4577;SDS011;2301;47.354;8.528;2023-09-07T14:20:15;3.10;;;1.80;;
4577;SDS011;2301;47.354;8.528;2023-09-07T14:22:43;2.00;;;1.80;;
4577;SDS011;2301;47.354;8.528;2023-09-07T14:25:10;3.00;;;2.27;;
4577;SDS011;2301;47.354;8.528;2023-09-07T14:27:40;2.60;;;2.07;;
4577;SDS011;2301;47.354;8.528;2023-09-07T14:30:07;3.13;;;1.90;;
4577;SDS011;2301;47.354;8.528;2023-09-07T14:32:35;2.63;;;2.20;;
4577;SDS011;2301;47.354;8.528;2023-09-07T14:35:01;6.67;;;2.30;;
4577;SDS011;2301;47.354;8.528;2023-09-07T14:37:29;5.80;;;2.20;;
4577;SDS011;2301;47.354;8.528;2023-09-07T14:39:58;2.80;;;2.20;;
4577;SDS011;2301;47.354;8.528;2023-09-07T14:42:27;2.20;;;2.00;;
4577;SDS011;2301;47.354;8.528;2023-09-07T14:44:55;2.23;;;2.10;;
4577;SDS011;2301;47.354;8.528;2023-09-07T14:47:25;1.90;;;1.80;;
4577;SDS011;2301;47.354;8.528;2023-09-07T14:49:52;2.40;;;2.10;;
4577;SDS011;2301;47.354;8.528;2023-09-07T14:52:19;2.00;;;1.83;;
4577;SDS011;2301;47.354;8.528;2023-09-07T14:54:47;2.60;;;2.03;;
4577;SDS011;2301;47.354;8.528;2023-09-07T14:57:14;1.90;;;1.80;;
4577;SDS011;2301;47.354;8.528;2023-09-07T14:59:41;3.03;;;2.03;;
4577;SDS011;2301;47.354;8.528;2023-09-07T15:02:09;2.60;;;1.63;;
4577;SDS011;2301;47.354;8.528;2023-09-07T15:04:36;3.53;;;2.20;;
4577;SDS011;2301;47.354;8.528;2023-09-07T15:07:03;2.57;;;2.00;;
4577;SDS011;2301;47.354;8.528;2023-09-07T15:09:30;2.10;;;1.73;;
4577;SDS011;2301;47.354;8.528;2023-09-07T15:11:57;2.83;;;2.13;;
4577;SDS011;2301;47.354;8.528;2023-09-07T15:14:24;2.87;;;2.17;;
4577;SDS011;2301;47.354;8.528;2023-09-07T15:16:51;3.17;;;2.00;;
4577;SDS011;2301;47.354;8.528;2023-09-07T15:19:19;3.00;;;1.80;;